Aérodrome :
LOGIN :

S'inscrire | Disclaimer

   EN    FR    IT 

 










Légende :    VFR   VFR Marginal   IFR   IFR Intensif   IFR Très Intensif
Visi : 
Plafond : 
>= 8 km
>= 3000ft
5 à 8 km
1000 à 3000 ft
1500m à 5 km
500 à 1000 ft
800 à 1500m
200 à 500 ft
< 800m
< 200 ft
Symboles :   Orages  Brouillard  Fortes neiges  Fortes précipitations  Vent > 20 kt
SIGMETs :   Divers  Orages  Givrage  Turbulence  Onde Orograph.  Cendres Volcan.







- Altitude de l'aérodrome : 157 ft
- Code IATA : SXF


EDDB - Berlin Schönefeld

DERNIER METAR :
  • 221220Z 34007KT 9999 -RA FEW006 BKN021 OVC035 10/08 Q1027 NOSIG

METARs EXPIRÉS :
  • 221150Z 35010KT 9999 -RA FEW006 BKN021 OVC035 10/07 Q1027 NOSIG
  • 221120Z 32012KT 280V350 5000 -RA BR BKN004 BKN016 10/09 Q1026 REDZ BECMG BKN012
  • 221050Z 30007KT 4100 -DZ BR BKN004 10/09 Q1026 REDZ TEMPO 2500 DZ
  • 221020Z 29007KT 3100 DZ BKN008 10/08 Q1026 TEMPO 2500 DZ BKN004
  • 220950Z 28008KT 9999 BKN013 BKN033 11/06 Q1026 BECMG 4000 -DZ BKN009

TAF COR TAF EDDB
Valide du 22 à 12h jusqu'au 23 à 12h UTC


221106Z 2212/2312 30008KT 3000 DZ BKN004
BECMG 2212/2214 CAVOK
BECMG 2223/2301 24012KT
BECMG 2304/2306 24015G25KT
BECMG 2308/2311 BKN010
TEMPO 2309/2312 25020G35KT
Pas de NOTAMs connus pour ce terrain.



MET'MAP, la Météo Aéronautique d'un coup d'oeil ! - Copyright ORBIFLY Décembre 2007 - Disclaimer

ORBIFLY MET'MAP TEAM :

Programmation & Développement : Alexandra Zaïnal
Conception & Développement : Baudouin d'Aumeries
Co-Programmation & Développement : Marc-Olivier Méhu
Soutien technique & logistique : Manuel Goepfert

Contact : metmap@orbifly.com




SOURCES & CREDITS :

   NOAA